Welcome to the New NWS' Forecast!
Most changes are behind the scenes, but click here for differences you might notice.
Latest weather observations around

PATTYMOCUS (PMCC1)

Using English Units (Switch to International System of Units)
Date/ Time (PST) Wind (mph) Vis. (mi) Weather Sky Cond. Temp (°F) Rel. Humidity Wind Chill (°F) Heat Index (°F) Pressure Precip. (in)
Air Dwpt 6 hour Altimeter (inHg) Sea level (inHg) 1 hr 3 hr 6 hr
Max Min
Nov 17 23:35 E 1   Clear   37 21     53%              
Nov 17 22:35 Calm   Clear   38 25     58%              
Nov 17 21:35 WSW 1   Clear   38 27     64%              
Nov 17 20:35 Calm   Clear   37 28     69%              
Nov 17 19:35 Calm   Clear   37 28     69%              
Nov 17 18:35 E 1   Clear   37 28     71%              
Nov 17 17:35 ENE 2   Clear   38 27     63%              
Nov 17 16:35 E 2   Clear   41 26     55%              
Nov 17 15:35 ESE 4   Clear   48 27     44% 47            
Nov 17 14:35 SE 3   Clear   50 27     41% 50            
Nov 17 13:35 ESE 2   Clear   51 28     40%              
Nov 17 12:35 ESE 3   Clear   50 28     43% 50            
Nov 17 11:35 ESE 5   Clear   49 29     46% 47            
Nov 17 10:35 S 3   Clear   46 25     44% 45            
Nov 17 09:35 WSW 5   Clear   42 28     57% 39            
Nov 17 08:35 W 3   Clear   39 29     68% 37            
Nov 17 07:35 WNW 5   Clear   34 28     78% 29            
Nov 17 06:35 WNW 5   Clear   33 28     83% 28            
Nov 17 05:35 W 5   Clear   33 29     85% 28            
Nov 17 04:35 W 3   Clear   33 30     87% 30            
Nov 17 03:35 W 5   Clear   34 29     83% 29            
Nov 17 02:35 W 7   Clear   35 32     88% 29            
Nov 17 01:35 WNW 3   Clear   35 32     89% 33            
Nov 17 00:35 WNW 4   Clear   36 33     88% 33            
Nov 16 23:35 NNE 3   Clear   36 32     85% 34            
Nov 16 22:35 N 4   Clear   36 34     91% 33            
Nov 16 21:35 NW 1   Clear   36 33     89%              
Nov 16 20:35 WSW 3   Clear   37 34     89% 35            
Nov 16 19:35 WSW 3   Clear   37 33     87% 35            
Nov 16 18:35 W 1   Clear   38 35     89%              
Nov 16 17:35 NNE 2   Clear   40 36     87%              
Nov 16 16:35 S 2   Clear   42 40     94%              
Nov 16 15:35 SW 4   Clear   45 35     68% 43            
Nov 16 14:35 SE 3   Clear   51 43     73%              
Nov 16 13:35 SSE 3   Clear   50 39     67% 50            
Nov 16 12:35 SE 2   Clear   50 43     76%              
Nov 16 11:35 SSE 3   Clear   44 36     73% 43            
Nov 16 10:35 WSW 4   Clear   45 39     79% 43            
Nov 16 09:35 WNW 3   Clear   40 38     92% 38            
Nov 16 08:35 W 1   Clear   40 39     95%              
Nov 16 07:35 NE 1   Clear   39 38     96%              
Nov 16 06:35 N 1   Clear   40 38     91%              
Nov 16 05:35 S 1   Clear   40 37     89%              
Nov 16 04:35 NNW 1   Clear   40 37     90%              
Nov 16 03:35 W 1   Clear   39 37     93%              
Nov 16 02:35 W 2   Clear   39 37     92%              
Nov 16 01:35 SW 3   Clear   39 37     92% 37            
Nov 16 00:35 SW 4   Clear   39 37     93% 36            
Nov 15 23:35 WSW 7   Clear   38 37     97% 33            
Nov 15 21:35 WNW 2   Clear   40 40     100%              
Nov 15 20:35 W 1   Clear   38 38     100%              
Nov 15 19:35 NE 2   Clear   38 38     100%              
Nov 15 18:35 NNE 2   Clear   38 38     100%              
Nov 15 17:35 NNE 1   Clear   37 37     100%              
Nov 15 16:35 NE 2   Clear   37 37     100%              
Nov 15 15:35 E 8   Clear   37 37     100% 31            
Nov 15 14:35 E 6   Clear   38 38     100% 33            
Nov 15 13:35 E 6   Clear   38 38     100% 33            
Nov 15 12:35 E 3   Clear   38 38     100% 36            
Nov 15 11:35 E 4   Clear   38 38     100% 35            
Nov 15 10:35 E 4   Clear   38 38     100% 35            
Nov 15 09:35 E 3   Clear   38 38     100% 36            
Nov 15 08:35 E 1   Clear   38 38     100%              
Nov 15 07:35 E 2   Clear   38 38     100%              
Nov 15 06:35 Calm   Clear   38 38     100%              
Nov 15 05:35 Calm   Clear   38 38     100%              
Nov 15 04:35 Calm   Clear   38 37     98%              
Nov 15 03:35 NW 1   Clear   38 37     97%              
Nov 15 02:35 NW 1   Clear   39 36     89%              
Nov 15 01:35 Calm   Clear   39 37     91%              
Nov 15 00:35 E 2   Clear   40 36     87%